Welcome to our new website - Welkom op onze vernieuwde website - Bienvenue sur notre nouveau site web - Willkommen auf unserer neuen Website
Check our progress frequently. Prüfen Sie unsere Fortschritte regelmäßig. Consultez notre progression fréquemment. Komt u straks nog eens terug
Het weer levert geen direct gevaar op.    Er zijn geen waarschuwingen afgegeven.

Regen radar Meer informatie rain snow radar


Bezoek ook deze websites:

Template documentation
and downloads

And another site


U vindt ons ook hier:

UK Metoffice

WeatherCloud

Weather Underground

AWEKAS



METAR rapporten vliegvelden

Warning: A non-numeric value encountered in /customers/a/f/b/meteoassenede.be/httpd.www/weather28/metar/metarDisplay.php on line 166 Warning: A non-numeric value encountered in /customers/a/f/b/meteoassenede.be/httpd.www/weather28/metar/metarDisplay.php on line 166 Warning: A non-numeric value encountered in /customers/a/f/b/meteoassenede.be/httpd.www/weather28/metar/metarDisplay.php on line 166 Warning: A non-numeric value encountered in /customers/a/f/b/meteoassenede.be/httpd.www/weather28/metar/metarDisplay.php on line 166
   
EBBR - Brussels International Airport, Belgium
Afstand tot: W 14 km
Gewijzigd: 20-09-2020 03:50
Helder  
Helder  
   Wind: NO 6 km/h
Wind: NO 6 km/h
Temperatuur: 14°C
Dauwpunt: 9°C
Vochtigheid: 72%
Barometer: 1016 hPa
Zicht: meer dan 10 km
Bewolking: Helder
EBBR 200150Z 05003KT CAVOK 14/09 Q1016 NOSIG
EBBE - Beauvechain (Bevekom), Belgium
Afstand tot: ZZO 17 km
Gewijzigd: 20-09-2020 03:55
Gedeeltelijk bewolkt  
Gedeeltelijk bewolkt  
   Wind: NO 7 km/h
Wind: NO 7 km/h
Temperatuur: 15°C
Dauwpunt: 9°C
Vochtigheid: 68%
Barometer: 1015 hPa
Bewolking: Gedeeltelijk bewolkt
Zicht: meer dan 10 km
Bewolking: Gedeeltelijk bewolkt 8000 ft
EBBE 200155Z AUTO 05004KT 9999 SCT080/// 15/09 Q1015 BLU
EBDT - Schaffen, Belgium
Afstand tot: ONO 29 km
Gewijzigd: 20-09-2020 03:55
Grotendeels bewolkt  
Grotendeels bewolkt  
   Wind: varieert 4 km/h
Wind: varieert 4 km/h
Temperatuur: 15°C
Dauwpunt: 7°C
Vochtigheid: 59%
Barometer: 1016 hPa
Bewolking: Grotendeels bewolkt
Zicht: meer dan 10 km
Bewolking: Grotendeels bewolkt 16000 ft,
Grotendeels bewolkt 22000 ft
EBDT 200155Z AUTO VRB02KT 9999 BKN160/// BKN220/// 15/07 Q1016 BLU
EBAW - Antwerp/Deurne, Belgium
Afstand tot: NNW 38 km
Gewijzigd: 20-09-2020 03:50
Helder  
Helder  
   Wind: NO 7 km/h
Wind: NO 7 km/h
Temperatuur: 15°C
Dauwpunt: 7°C
Vochtigheid: 59%
Barometer: 1016 hPa
Zicht: meer dan 10 km
Bewolking: Helder
EBAW 200150Z AUTO 04004KT CAVOK 15/07 Q1016
EBCI - Charleroi/Gosselies, Belgium
Afstand tot: ZZW 51 km
Gewijzigd: 20-09-2020 03:50
Helder  
Helder  
   Wind: varieert 2 km/h
Wind: varieert 2 km/h
Temperatuur: 19°C
Dauwpunt: 11°C
Vochtigheid: 60%
Barometer: 1016 hPa
Zicht: meer dan 10 km
Bewolking: Helder
EBCI 200150Z VRB01KT CAVOK 19/11 Q1016 NOSIG
EBLG - Bierset/Liege, Belgium
Afstand tot: OZO 60 km
Gewijzigd: 20-09-2020 03:50
Helder  
Helder  
   Wind: varieert 6 km/h
Wind: varieert 6 km/h
Temperatuur: 17°C
Dauwpunt: 8°C
Vochtigheid: 56%
Barometer: 1016 hPa
Zicht: meer dan 10 km
Bewolking: Helder
EBLG 200150Z VRB03KT CAVOK 17/08 Q1016 NOSIG

Script ontwikkeld door  Saratoga-weather.org Aangepast voor de template door  Weerstation Leuven

Apparatuur in gebruik:

Weerstation
Davis Vantage Pro2

Weerprogramma
Meteobridge

Weercomputer
TP-Link TL-MR3020

Webleverancier
One.com

Davis Vantage Pro2

Meteobridge

TP-Link TL-MR3020

One.com